createdAt,value
2022-09-21T00:04:19.856Z,9.05
2022-09-21T00:09:51.621Z,9.16
2022-09-21T00:15:23.444Z,9.26
2022-09-21T00:20:55.078Z,9.43
2022-09-21T00:26:26.817Z,9.53
2022-09-21T00:31:58.210Z,9.67
2022-09-21T00:42:58.940Z,9.73
2022-09-21T00:48:30.599Z,9.73
2022-09-21T00:54:01.986Z,9.74
2022-09-21T00:59:33.875Z,9.71
2022-09-21T01:05:05.568Z,9.71
2022-09-21T01:07:18.084Z,0.00
2022-09-21T01:12:49.623Z,9.71
2022-09-21T01:18:20.853Z,9.70
2022-09-21T01:23:52.267Z,9.61
2022-09-21T01:29:23.823Z,9.53
2022-09-21T01:34:55.449Z,9.39
2022-09-21T01:40:29.104Z,9.32
2022-09-21T01:45:58.558Z,9.18
2022-09-21T01:51:29.750Z,9.08
2022-09-21T01:57:01.084Z,8.92
2022-09-21T02:02:32.577Z,8.82
2022-09-21T02:08:04.243Z,8.68
2022-09-21T02:13:36.371Z,8.63
2022-09-21T02:19:08.124Z,8.50
2022-09-21T02:24:39.329Z,8.43
2022-09-21T02:30:10.618Z,8.32
2022-09-21T02:35:42.533Z,8.25
2022-09-21T02:41:14.203Z,8.15
2022-09-21T02:46:45.823Z,8.11
2022-09-21T02:52:17.174Z,8.02
2022-09-21T02:57:48.481Z,7.98
2022-09-21T03:03:19.842Z,7.93
2022-09-21T03:08:51.156Z,7.86
2022-09-21T03:14:28.355Z,7.83
2022-09-21T03:19:59.675Z,7.78
2022-09-21T03:25:31.026Z,7.69
2022-09-21T03:31:02.841Z,7.60
2022-09-21T03:36:34.453Z,7.57
2022-09-21T03:42:06.325Z,7.52
2022-09-21T03:47:38.023Z,7.47
2022-09-21T03:53:09.143Z,7.41
2022-09-21T03:58:40.691Z,7.33
2022-09-21T04:04:12.407Z,7.31
2022-09-21T04:09:43.748Z,7.28
2022-09-21T04:15:15.611Z,7.25
2022-09-21T04:20:47.340Z,7.21
2022-09-21T04:26:18.998Z,7.19
2022-09-21T04:31:50.908Z,7.15
2022-09-21T04:37:22.636Z,7.12
2022-09-21T04:48:23.438Z,6.98
2022-09-21T04:53:55.293Z,6.95
2022-09-21T04:59:27.098Z,6.93
2022-09-21T05:04:58.706Z,6.88
2022-09-21T05:10:30.357Z,6.88
2022-09-21T05:16:02.261Z,6.91
2022-09-21T05:21:33.892Z,7.15
2022-09-21T05:32:34.766Z,9.16
2022-09-21T05:38:06.417Z,10.75
2022-09-21T05:43:38.149Z,11.50
2022-09-21T05:54:38.879Z,14.05
2022-09-21T06:00:10.653Z,15.60
2022-09-21T06:05:42.471Z,16.24
2022-09-21T06:11:14.276Z,17.52
2022-09-21T06:16:45.978Z,18.06
2022-09-21T06:22:17.744Z,19.09
2022-09-21T06:27:49.477Z,19.47
2022-09-21T06:33:20.807Z,20.19
2022-09-21T06:38:52.614Z,20.58
2022-09-21T06:44:24.227Z,21.36
2022-09-21T06:49:55.650Z,21.69
2022-09-21T06:55:27.027Z,22.30
2022-09-21T07:00:58.613Z,22.69
2022-09-21T07:06:30.838Z,23.24
2022-09-21T07:12:02.492Z,23.47
2022-09-21T07:17:34.638Z,24.19
2022-09-21T07:25:25.857Z,24.54
2022-09-21T07:30:57.284Z,24.81
2022-09-21T07:36:28.634Z,25.26
2022-09-21T07:42:00.056Z,25.36
2022-09-21T07:47:31.272Z,25.05
2022-09-21T07:58:32.130Z,24.65
2022-09-21T08:04:03.458Z,24.28
2022-09-21T08:09:34.935Z,23.71
2022-09-21T08:15:07.622Z,23.23
2022-09-21T08:26:11.558Z,22.65
2022-09-21T08:37:14.288Z,22.35
2022-09-21T08:42:50.116Z,22.68
2022-09-21T08:48:17.224Z,22.62
2022-09-21T08:53:48.542Z,22.48
2022-09-21T08:59:19.888Z,22.38
2022-09-21T09:04:51.202Z,21.68
2022-09-21T09:10:22.549Z,21.09
2022-09-21T09:15:53.847Z,19.72
2022-09-21T09:21:31.448Z,19.09
2022-09-21T09:29:09.171Z,0.00
2022-09-21T09:34:40.616Z,17.67
2022-09-21T09:40:11.904Z,17.38
2022-09-21T09:45:43.113Z,17.09
2022-09-21T09:51:14.563Z,16.91
2022-09-21T09:56:45.764Z,16.64
2022-09-21T10:02:17.098Z,16.58
2022-09-21T10:07:48.501Z,16.54
2022-09-21T10:13:19.638Z,16.61
2022-09-21T10:18:51.289Z,16.96
2022-09-21T10:24:22.742Z,17.10
2022-09-21T10:29:54.121Z,17.26
2022-09-21T10:35:25.437Z,17.27
2022-09-21T10:40:56.739Z,17.30
2022-09-21T10:46:28.067Z,17.33
2022-09-21T10:51:59.316Z,17.47
2022-09-21T10:57:30.839Z,17.55
2022-09-21T11:03:02.501Z,17.37
2022-09-21T11:08:33.663Z,17.34
2022-09-21T11:14:05.146Z,17.30
2022-09-21T11:19:36.750Z,17.22
2022-09-21T11:25:08.165Z,17.20
2022-09-21T11:30:39.656Z,17.44
2022-09-21T11:36:11.219Z,17.52
2022-09-21T11:41:42.284Z,17.50
2022-09-21T11:47:13.849Z,17.60
2022-09-21T11:52:45.213Z,17.69
2022-09-21T11:58:16.604Z,17.67
2022-09-21T12:03:48.060Z,17.64
2022-09-21T12:09:19.623Z,17.64
2022-09-21T12:14:50.840Z,17.57
2022-09-21T12:20:22.392Z,17.48
2022-09-21T12:25:55.733Z,17.44
2022-09-21T12:31:27.138Z,17.42
2022-09-21T12:36:58.729Z,17.30
2022-09-21T12:42:30.188Z,17.17
2022-09-21T12:48:01.441Z,17.13
2022-09-21T12:53:32.959Z,17.13
2022-09-21T12:59:04.552Z,16.95
2022-09-21T13:04:35.687Z,16.93
2022-09-21T13:10:07.171Z,16.85
2022-09-21T13:15:38.429Z,16.89
2022-09-21T13:21:09.862Z,17.10
2022-09-21T13:26:40.975Z,17.14
2022-09-21T13:32:12.531Z,17.20
2022-09-21T13:37:43.779Z,17.17
2022-09-21T13:48:48.786Z,17.14
2022-09-21T13:54:20.022Z,17.30
2022-09-21T14:05:22.564Z,17.34
2022-09-21T14:10:53.800Z,17.20
2022-09-21T14:16:25.785Z,17.16
2022-09-21T14:21:57.928Z,17.14
2022-09-21T14:27:29.959Z,17.26
2022-09-21T14:33:01.709Z,17.38
2022-09-21T14:38:33.388Z,17.51
2022-09-21T14:44:05.228Z,17.55
2022-09-21T14:55:05.858Z,17.51
2022-09-21T15:00:37.197Z,17.42
2022-09-21T15:06:08.671Z,17.31
2022-09-21T15:17:09.524Z,17.23
2022-09-21T15:22:40.872Z,17.23
2022-09-21T15:33:41.617Z,17.40
2022-09-21T15:39:13.163Z,17.14
2022-09-21T15:44:44.814Z,16.92
2022-09-21T15:50:16.171Z,16.72
2022-09-21T15:55:47.975Z,16.64
2022-09-21T16:01:19.891Z,16.50
2022-09-21T16:06:51.065Z,16.44
2022-09-21T16:12:22.949Z,16.36
2022-09-21T16:23:23.819Z,16.16
2022-09-21T16:31:16.188Z,16.02
2022-09-21T16:36:47.557Z,15.95
2022-09-21T16:42:19.071Z,15.84
2022-09-21T16:47:50.420Z,15.72
2022-09-21T16:53:21.715Z,15.56
2022-09-21T16:58:53.008Z,15.44
2022-09-21T17:09:53.851Z,15.14
2022-09-21T17:15:25.199Z,14.96
2022-09-21T17:20:56.662Z,14.86
2022-09-21T17:26:28.419Z,14.64
2022-09-21T17:34:19.805Z,14.41
2022-09-21T17:39:51.266Z,14.30
2022-09-21T17:45:22.840Z,14.08
2022-09-21T17:50:54.250Z,13.92
2022-09-21T17:56:25.754Z,13.75
2022-09-21T18:01:57.667Z,13.68
2022-09-21T18:07:29.104Z,13.51
2022-09-21T18:13:00.554Z,13.38
2022-09-21T18:18:32.199Z,13.22
2022-09-21T18:24:03.597Z,13.13
2022-09-21T18:29:40.035Z,12.99
2022-09-21T18:35:07.360Z,12.88
2022-09-21T18:40:39.007Z,12.75
2022-09-21T18:46:11.074Z,12.65
2022-09-21T18:51:42.446Z,12.50
2022-09-21T18:57:13.813Z,12.37
2022-09-21T19:03:05.430Z,12.23
2022-09-21T19:08:17.235Z,12.15
2022-09-21T19:13:48.413Z,11.99
2022-09-21T19:19:19.859Z,11.96
2022-09-21T19:24:51.241Z,11.85
2022-09-21T19:30:28.424Z,11.77
2022-09-21T19:36:06.151Z,11.71
2022-09-21T19:41:37.717Z,11.57
2022-09-21T19:47:09.133Z,11.53
2022-09-21T19:52:43.481Z,11.43
2022-09-21T19:58:15.416Z,11.39
2022-09-21T20:03:47.122Z,11.30
2022-09-21T20:09:19.131Z,11.23
2022-09-21T20:14:52.768Z,11.10
2022-09-21T20:20:24.264Z,11.06
2022-09-21T20:25:56.170Z,10.94
2022-09-21T20:31:27.853Z,10.87
2022-09-21T20:37:00.405Z,10.77
2022-09-21T20:42:31.907Z,10.70
2022-09-21T20:48:03.659Z,10.61
2022-09-21T20:53:35.481Z,10.59
2022-09-21T20:59:07.037Z,10.50
2022-09-21T21:10:11.241Z,10.33
2022-09-21T21:12:32.928Z,0.00
2022-09-21T21:18:04.644Z,10.25
2022-09-21T21:23:36.723Z,10.16
2022-09-21T21:29:08.530Z,10.06
2022-09-21T21:34:40.092Z,9.97
2022-09-21T21:40:11.930Z,9.85
2022-09-21T21:45:43.261Z,9.80
2022-09-21T21:51:14.632Z,9.67
2022-09-21T21:56:46.139Z,9.58
2022-09-21T22:02:18.039Z,9.49
2022-09-21T22:13:21.493Z,9.35
2022-09-21T22:24:22.123Z,9.21
2022-09-21T22:29:53.688Z,9.16
2022-09-21T22:35:25.453Z,9.08
2022-09-21T22:40:57.368Z,9.02
2022-09-21T22:46:28.917Z,8.92
2022-09-21T22:52:00.444Z,8.90
2022-09-21T22:54:24.066Z,8.87
2022-09-21T22:59:55.634Z,8.86
2022-09-21T23:05:27.558Z,8.72
2022-09-21T23:10:59.304Z,8.72
2022-09-21T23:16:31.017Z,8.61
2022-09-21T23:22:02.343Z,8.54
2022-09-21T23:27:34.221Z,8.49
2022-09-21T23:33:06.061Z,8.43
2022-09-21T23:38:37.756Z,8.42
2022-09-21T23:44:09.957Z,8.32
2022-09-21T23:49:41.784Z,8.25
2022-09-21T23:55:13.277Z,8.14
